sensor_id;sensor_type;location;lat;lon;timestamp;P1;durP1;ratioP1;P2;durP2;ratioP2
56599;SDS011;51832;48.152;11.530;2023-08-20T00:03:59;5.70;;;5.10;;
56599;SDS011;51832;48.152;11.530;2023-08-20T00:09:00;7.47;;;4.80;;
56599;SDS011;51832;48.152;11.530;2023-08-20T00:14:00;5.60;;;4.27;;
56599;SDS011;51832;48.152;11.530;2023-08-20T00:19:01;9.10;;;4.80;;
56599;SDS011;51832;48.152;11.530;2023-08-20T00:24:02;7.22;;;5.15;;
56599;SDS011;51832;48.152;11.530;2023-08-20T00:29:03;7.28;;;4.97;;
56599;SDS011;51832;48.152;11.530;2023-08-20T00:34:03;5.82;;;5.15;;
56599;SDS011;51832;48.152;11.530;2023-08-20T00:39:04;6.43;;;5.10;;
56599;SDS011;51832;48.152;11.530;2023-08-20T00:44:04;5.93;;;5.03;;
56599;SDS011;51832;48.152;11.530;2023-08-20T00:49:05;6.80;;;5.15;;
56599;SDS011;51832;48.152;11.530;2023-08-20T00:54:06;9.27;;;5.35;;
56599;SDS011;51832;48.152;11.530;2023-08-20T00:59:07;6.85;;;4.95;;
56599;SDS011;51832;48.152;11.530;2023-08-20T01:04:07;6.28;;;5.22;;
56599;SDS011;51832;48.152;11.530;2023-08-20T01:09:27;6.87;;;4.80;;
56599;SDS011;51832;48.152;11.530;2023-08-20T01:14:30;5.40;;;4.63;;
56599;SDS011;51832;48.152;11.530;2023-08-20T01:19:31;7.88;;;5.07;;
56599;SDS011;51832;48.152;11.530;2023-08-20T01:29:47;5.88;;;5.25;;
56599;SDS011;51832;48.152;11.530;2023-08-20T01:34:48;6.15;;;5.55;;
56599;SDS011;51832;48.152;11.530;2023-08-20T01:39:49;7.35;;;4.95;;
56599;SDS011;51832;48.152;11.530;2023-08-20T01:44:49;6.53;;;5.00;;
56599;SDS011;51832;48.152;11.530;2023-08-20T01:49:49;8.23;;;5.50;;
56599;SDS011;51832;48.152;11.530;2023-08-20T01:54:50;5.97;;;5.27;;
56599;SDS011;51832;48.152;11.530;2023-08-20T01:59:51;8.23;;;4.93;;
56599;SDS011;51832;48.152;11.530;2023-08-20T02:04:51;5.90;;;5.30;;
56599;SDS011;51832;48.152;11.530;2023-08-20T02:09:51;8.68;;;4.95;;
56599;SDS011;51832;48.152;11.530;2023-08-20T02:14:52;6.22;;;5.10;;
56599;SDS011;51832;48.152;11.530;2023-08-20T02:19:52;6.82;;;5.30;;
56599;SDS011;51832;48.152;11.530;2023-08-20T02:24:53;7.00;;;4.90;;
56599;SDS011;51832;48.152;11.530;2023-08-20T02:29:53;8.17;;;5.40;;
56599;SDS011;51832;48.152;11.530;2023-08-20T02:34:54;5.57;;;4.73;;
56599;SDS011;51832;48.152;11.530;2023-08-20T02:39:55;7.45;;;5.07;;
56599;SDS011;51832;48.152;11.530;2023-08-20T02:44:55;7.55;;;4.85;;
56599;SDS011;51832;48.152;11.530;2023-08-20T02:49:56;6.80;;;4.90;;
56599;SDS011;51832;48.152;11.530;2023-08-20T02:54:56;6.07;;;4.68;;
56599;SDS011;51832;48.152;11.530;2023-08-20T02:59:57;6.43;;;5.07;;
56599;SDS011;51832;48.152;11.530;2023-08-20T03:04:57;7.85;;;5.40;;
56599;SDS011;51832;48.152;11.530;2023-08-20T03:09:58;6.95;;;5.43;;
56599;SDS011;51832;48.152;11.530;2023-08-20T03:15:01;8.00;;;5.10;;
56599;SDS011;51832;48.152;11.530;2023-08-20T03:20:02;8.27;;;4.90;;
56599;SDS011;51832;48.152;11.530;2023-08-20T03:25:06;5.38;;;4.50;;
56599;SDS011;51832;48.152;11.530;2023-08-20T03:30:07;5.95;;;4.70;;
56599;SDS011;51832;48.152;11.530;2023-08-20T03:35:08;8.68;;;5.35;;
56599;SDS011;51832;48.152;11.530;2023-08-20T03:40:09;8.25;;;5.40;;
56599;SDS011;51832;48.152;11.530;2023-08-20T03:45:10;6.18;;;5.43;;
56599;SDS011;51832;48.152;11.530;2023-08-20T03:50:10;9.30;;;5.57;;
56599;SDS011;51832;48.152;11.530;2023-08-20T03:55:10;9.07;;;5.07;;
56599;SDS011;51832;48.152;11.530;2023-08-20T04:00:11;6.17;;;5.03;;
56599;SDS011;51832;48.152;11.530;2023-08-20T04:05:12;6.07;;;5.15;;
56599;SDS011;51832;48.152;11.530;2023-08-20T04:10:12;7.35;;;4.50;;
56599;SDS011;51832;48.152;11.530;2023-08-20T04:15:13;7.97;;;4.90;;
56599;SDS011;51832;48.152;11.530;2023-08-20T04:20:13;6.40;;;4.57;;
56599;SDS011;51832;48.152;11.530;2023-08-20T04:25:14;8.05;;;5.25;;
56599;SDS011;51832;48.152;11.530;2023-08-20T04:30:14;8.13;;;5.22;;
56599;SDS011;51832;48.152;11.530;2023-08-20T04:35:15;7.53;;;4.80;;
56599;SDS011;51832;48.152;11.530;2023-08-20T04:40:15;6.70;;;4.50;;
56599;SDS011;51832;48.152;11.530;2023-08-20T04:45:16;7.70;;;5.15;;
56599;SDS011;51832;48.152;11.530;2023-08-20T04:50:18;10.27;;;5.13;;
56599;SDS011;51832;48.152;11.530;2023-08-20T04:55:18;8.10;;;5.35;;
56599;SDS011;51832;48.152;11.530;2023-08-20T05:00:19;9.17;;;5.20;;
56599;SDS011;51832;48.152;11.530;2023-08-20T05:05:20;8.50;;;5.57;;
56599;SDS011;51832;48.152;11.530;2023-08-20T05:10:21;7.57;;;4.77;;
56599;SDS011;51832;48.152;11.530;2023-08-20T05:15:21;7.40;;;5.00;;
56599;SDS011;51832;48.152;11.530;2023-08-20T05:20:22;6.57;;;4.65;;
56599;SDS011;51832;48.152;11.530;2023-08-20T05:25:22;6.30;;;5.33;;
56599;SDS011;51832;48.152;11.530;2023-08-20T05:30:23;8.23;;;5.20;;
56599;SDS011;51832;48.152;11.530;2023-08-20T05:35:23;10.10;;;5.07;;
56599;SDS011;51832;48.152;11.530;2023-08-20T05:40:24;8.88;;;5.20;;
56599;SDS011;51832;48.152;11.530;2023-08-20T05:45:24;9.60;;;5.20;;
56599;SDS011;51832;48.152;11.530;2023-08-20T05:50:25;5.75;;;4.70;;
56599;SDS011;51832;48.152;11.530;2023-08-20T05:55:25;6.47;;;4.43;;
56599;SDS011;51832;48.152;11.530;2023-08-20T06:00:26;8.20;;;5.00;;
56599;SDS011;51832;48.152;11.530;2023-08-20T06:05:26;7.60;;;5.03;;
56599;SDS011;51832;48.152;11.530;2023-08-20T06:10:27;7.53;;;5.00;;
56599;SDS011;51832;48.152;11.530;2023-08-20T06:15:27;7.55;;;5.03;;
56599;SDS011;51832;48.152;11.530;2023-08-20T06:20:28;6.53;;;4.90;;
56599;SDS011;51832;48.152;11.530;2023-08-20T06:25:28;7.45;;;4.97;;
56599;SDS011;51832;48.152;11.530;2023-08-20T06:30:29;6.57;;;4.83;;
56599;SDS011;51832;48.152;11.530;2023-08-20T06:35:29;5.30;;;4.78;;
56599;SDS011;51832;48.152;11.530;2023-08-20T06:40:30;5.63;;;3.58;;
56599;SDS011;51832;48.152;11.530;2023-08-20T06:45:31;10.68;;;4.65;;
56599;SDS011;51832;48.152;11.530;2023-08-20T06:50:31;8.43;;;4.63;;
56599;SDS011;51832;48.152;11.530;2023-08-20T06:55:31;5.33;;;4.63;;
56599;SDS011;51832;48.152;11.530;2023-08-20T07:00:32;7.65;;;4.45;;
56599;SDS011;51832;48.152;11.530;2023-08-20T07:05:32;5.77;;;4.70;;
56599;SDS011;51832;48.152;11.530;2023-08-20T07:10:33;5.68;;;5.00;;
56599;SDS011;51832;48.152;11.530;2023-08-20T07:15:33;4.90;;;4.30;;
56599;SDS011;51832;48.152;11.530;2023-08-20T07:20:34;7.47;;;4.45;;
56599;SDS011;51832;48.152;11.530;2023-08-20T07:25:37;6.13;;;4.30;;
56599;SDS011;51832;48.152;11.530;2023-08-20T07:30:39;6.50;;;4.60;;
56599;SDS011;51832;48.152;11.530;2023-08-20T07:35:40;6.10;;;4.22;;
56599;SDS011;51832;48.152;11.530;2023-08-20T07:40:40;6.53;;;5.10;;
56599;SDS011;51832;48.152;11.530;2023-08-20T07:45:41;5.30;;;4.33;;
56599;SDS011;51832;48.152;11.530;2023-08-20T07:50:41;7.50;;;4.80;;
56599;SDS011;51832;48.152;11.530;2023-08-20T07:55:42;8.80;;;4.93;;
56599;SDS011;51832;48.152;11.530;2023-08-20T08:00:42;5.60;;;4.55;;
56599;SDS011;51832;48.152;11.530;2023-08-20T08:05:46;10.05;;;5.63;;
56599;SDS011;51832;48.152;11.530;2023-08-20T08:10:48;6.72;;;4.70;;
56599;SDS011;51832;48.152;11.530;2023-08-20T08:15:48;6.53;;;4.68;;
56599;SDS011;51832;48.152;11.530;2023-08-20T08:20:49;4.78;;;4.20;;
56599;SDS011;51832;48.152;11.530;2023-08-20T08:25:50;7.28;;;4.97;;
56599;SDS011;51832;48.152;11.530;2023-08-20T08:30:50;7.60;;;5.00;;
56599;SDS011;51832;48.152;11.530;2023-08-20T08:35:51;6.73;;;4.63;;
56599;SDS011;51832;48.152;11.530;2023-08-20T08:40:51;6.78;;;5.65;;
56599;SDS011;51832;48.152;11.530;2023-08-20T08:45:52;6.10;;;4.53;;
56599;SDS011;51832;48.152;11.530;2023-08-20T08:50:55;6.47;;;4.55;;
56599;SDS011;51832;48.152;11.530;2023-08-20T08:55:56;6.22;;;4.88;;
56599;SDS011;51832;48.152;11.530;2023-08-20T09:00:56;9.13;;;4.65;;
56599;SDS011;51832;48.152;11.530;2023-08-20T09:06:00;6.33;;;4.23;;
56599;SDS011;51832;48.152;11.530;2023-08-20T09:11:03;4.72;;;4.32;;
56599;SDS011;51832;48.152;11.530;2023-08-20T09:16:04;4.95;;;4.45;;
56599;SDS011;51832;48.152;11.530;2023-08-20T09:21:06;5.60;;;4.70;;
56599;SDS011;51832;48.152;11.530;2023-08-20T09:26:09;5.60;;;4.78;;
56599;SDS011;51832;48.152;11.530;2023-08-20T09:31:10;5.53;;;4.37;;
56599;SDS011;51832;48.152;11.530;2023-08-20T09:36:11;6.80;;;4.97;;
56599;SDS011;51832;48.152;11.530;2023-08-20T09:41:12;5.30;;;4.80;;
56599;SDS011;51832;48.152;11.530;2023-08-20T09:46:12;8.13;;;6.30;;
56599;SDS011;51832;48.152;11.530;2023-08-20T09:51:17;6.95;;;5.10;;
56599;SDS011;51832;48.152;11.530;2023-08-20T09:56:24;5.82;;;4.97;;
56599;SDS011;51832;48.152;11.530;2023-08-20T10:01:31;8.45;;;4.95;;
56599;SDS011;51832;48.152;11.530;2023-08-20T10:06:31;7.43;;;4.78;;
56599;SDS011;51832;48.152;11.530;2023-08-20T10:11:33;5.57;;;4.47;;
56599;SDS011;51832;48.152;11.530;2023-08-20T10:16:33;6.25;;;4.38;;
56599;SDS011;51832;48.152;11.530;2023-08-20T10:21:33;4.75;;;4.32;;
56599;SDS011;51832;48.152;11.530;2023-08-20T10:26:34;7.87;;;4.73;;
56599;SDS011;51832;48.152;11.530;2023-08-20T10:31:46;6.85;;;4.57;;
56599;SDS011;51832;48.152;11.530;2023-08-20T10:36:47;6.32;;;4.85;;
56599;SDS011;51832;48.152;11.530;2023-08-20T10:41:55;5.25;;;4.70;;
56599;SDS011;51832;48.152;11.530;2023-08-20T10:47:08;4.95;;;4.43;;
56599;SDS011;51832;48.152;11.530;2023-08-20T10:52:08;7.97;;;4.95;;
56599;SDS011;51832;48.152;11.530;2023-08-20T10:57:09;6.65;;;4.63;;
56599;SDS011;51832;48.152;11.530;2023-08-20T11:02:12;5.95;;;4.93;;
56599;SDS011;51832;48.152;11.530;2023-08-20T11:07:17;5.80;;;4.72;;
56599;SDS011;51832;48.152;11.530;2023-08-20T11:12:19;6.55;;;4.40;;
56599;SDS011;51832;48.152;11.530;2023-08-20T11:17:20;5.30;;;4.80;;
56599;SDS011;51832;48.152;11.530;2023-08-20T11:22:20;6.05;;;4.45;;
56599;SDS011;51832;48.152;11.530;2023-08-20T11:27:26;6.35;;;4.93;;
56599;SDS011;51832;48.152;11.530;2023-08-20T11:32:27;5.28;;;4.50;;
56599;SDS011;51832;48.152;11.530;2023-08-20T11:37:27;4.63;;;4.10;;
56599;SDS011;51832;48.152;11.530;2023-08-20T11:42:28;6.90;;;4.60;;
56599;SDS011;51832;48.152;11.530;2023-08-20T11:47:28;5.70;;;4.33;;
56599;SDS011;51832;48.152;11.530;2023-08-20T11:52:30;6.50;;;4.00;;
56599;SDS011;51832;48.152;11.530;2023-08-20T11:57:31;5.13;;;4.07;;
56599;SDS011;51832;48.152;11.530;2023-08-20T12:02:32;4.67;;;4.17;;
56599;SDS011;51832;48.152;11.530;2023-08-20T12:07:32;7.57;;;3.97;;
56599;SDS011;51832;48.152;11.530;2023-08-20T12:12:34;5.07;;;3.97;;
56599;SDS011;51832;48.152;11.530;2023-08-20T12:17:34;4.50;;;3.45;;
56599;SDS011;51832;48.152;11.530;2023-08-20T12:22:35;8.77;;;3.87;;
56599;SDS011;51832;48.152;11.530;2023-08-20T12:27:36;5.20;;;4.33;;
56599;SDS011;51832;48.152;11.530;2023-08-20T12:32:36;5.93;;;3.83;;
56599;SDS011;51832;48.152;11.530;2023-08-20T12:37:37;4.60;;;3.90;;
56599;SDS011;51832;48.152;11.530;2023-08-20T12:42:37;10.93;;;4.53;;
56599;SDS011;51832;48.152;11.530;2023-08-20T12:47:38;6.13;;;4.13;;
56599;SDS011;51832;48.152;11.530;2023-08-20T12:52:39;5.93;;;3.57;;
56599;SDS011;51832;48.152;11.530;2023-08-20T12:57:51;4.93;;;4.10;;
56599;SDS011;51832;48.152;11.530;2023-08-20T13:02:54;5.25;;;4.55;;
56599;SDS011;51832;48.152;11.530;2023-08-20T13:07:55;7.18;;;4.20;;
56599;SDS011;51832;48.152;11.530;2023-08-20T13:13:01;4.57;;;4.18;;
56599;SDS011;51832;48.152;11.530;2023-08-20T13:18:02;5.72;;;4.85;;
56599;SDS011;51832;48.152;11.530;2023-08-20T13:23:04;5.22;;;4.55;;
56599;SDS011;51832;48.152;11.530;2023-08-20T13:28:04;5.27;;;4.77;;
56599;SDS011;51832;48.152;11.530;2023-08-20T13:33:04;6.20;;;4.60;;
56599;SDS011;51832;48.152;11.530;2023-08-20T13:38:05;5.37;;;4.77;;
56599;SDS011;51832;48.152;11.530;2023-08-20T13:43:05;6.27;;;4.70;;
56599;SDS011;51832;48.152;11.530;2023-08-20T13:48:06;5.47;;;4.10;;
56599;SDS011;51832;48.152;11.530;2023-08-20T13:58:08;6.17;;;4.50;;
56599;SDS011;51832;48.152;11.530;2023-08-20T14:03:08;5.73;;;5.07;;
56599;SDS011;51832;48.152;11.530;2023-08-20T14:08:08;5.03;;;4.53;;
56599;SDS011;51832;48.152;11.530;2023-08-20T14:13:09;5.25;;;4.75;;
56599;SDS011;51832;48.152;11.530;2023-08-20T14:18:10;5.90;;;4.50;;
56599;SDS011;51832;48.152;11.530;2023-08-20T14:23:10;5.23;;;4.80;;
56599;SDS011;51832;48.152;11.530;2023-08-20T14:28:10;5.03;;;4.43;;
56599;SDS011;51832;48.152;11.530;2023-08-20T14:38:12;5.95;;;4.50;;
56599;SDS011;51832;48.152;11.530;2023-08-20T14:43:12;5.20;;;4.70;;
56599;SDS011;51832;48.152;11.530;2023-08-20T14:53:13;7.35;;;5.00;;
56599;SDS011;51832;48.152;11.530;2023-08-20T15:03:14;6.63;;;4.75;;
56599;SDS011;51832;48.152;11.530;2023-08-20T15:08:16;5.38;;;4.93;;
56599;SDS011;51832;48.152;11.530;2023-08-20T15:18:17;6.78;;;4.43;;
56599;SDS011;51832;48.152;11.530;2023-08-20T15:23:18;5.35;;;4.80;;
56599;SDS011;51832;48.152;11.530;2023-08-20T15:28:19;5.17;;;4.63;;
56599;SDS011;51832;48.152;11.530;2023-08-20T15:33:19;5.80;;;5.30;;
56599;SDS011;51832;48.152;11.530;2023-08-20T15:38:23;4.78;;;4.38;;
56599;SDS011;51832;48.152;11.530;2023-08-20T15:43:24;5.50;;;5.00;;
56599;SDS011;51832;48.152;11.530;2023-08-20T15:48:25;5.45;;;4.90;;
56599;SDS011;51832;48.152;11.530;2023-08-20T15:53:26;7.55;;;5.25;;
56599;SDS011;51832;48.152;11.530;2023-08-20T15:58:27;4.75;;;4.38;;
56599;SDS011;51832;48.152;11.530;2023-08-20T16:03:27;5.03;;;4.63;;
56599;SDS011;51832;48.152;11.530;2023-08-20T16:08:28;5.28;;;4.75;;
56599;SDS011;51832;48.152;11.530;2023-08-20T16:13:29;5.30;;;4.80;;
56599;SDS011;51832;48.152;11.530;2023-08-20T16:18:29;5.32;;;4.28;;
56599;SDS011;51832;48.152;11.530;2023-08-20T16:23:30;4.40;;;4.10;;
56599;SDS011;51832;48.152;11.530;2023-08-20T16:28:30;4.73;;;4.37;;
56599;SDS011;51832;48.152;11.530;2023-08-20T16:33:31;4.90;;;4.50;;
56599;SDS011;51832;48.152;11.530;2023-08-20T16:38:31;4.97;;;4.57;;
56599;SDS011;51832;48.152;11.530;2023-08-20T16:43:31;5.50;;;5.00;;
56599;SDS011;51832;48.152;11.530;2023-08-20T16:48:32;5.93;;;5.43;;
56599;SDS011;51832;48.152;11.530;2023-08-20T16:53:33;5.60;;;5.20;;
56599;SDS011;51832;48.152;11.530;2023-08-20T16:58:33;5.37;;;4.97;;
56599;SDS011;51832;48.152;11.530;2023-08-20T17:03:34;5.80;;;5.30;;
56599;SDS011;51832;48.152;11.530;2023-08-20T17:08:34;5.53;;;5.13;;
56599;SDS011;51832;48.152;11.530;2023-08-20T17:13:35;5.70;;;5.23;;
56599;SDS011;51832;48.152;11.530;2023-08-20T17:18:36;5.85;;;5.35;;
56599;SDS011;51832;48.152;11.530;2023-08-20T17:23:37;5.87;;;5.37;;
56599;SDS011;51832;48.152;11.530;2023-08-20T17:28:37;5.47;;;5.07;;
56599;SDS011;51832;48.152;11.530;2023-08-20T17:33:38;6.10;;;5.70;;
56599;SDS011;51832;48.152;11.530;2023-08-20T17:38:42;6.63;;;6.05;;
56599;SDS011;51832;48.152;11.530;2023-08-20T17:43:43;6.63;;;6.22;;
56599;SDS011;51832;48.152;11.530;2023-08-20T17:48:43;7.77;;;7.17;;
56599;SDS011;51832;48.152;11.530;2023-08-20T17:53:43;7.00;;;6.47;;
56599;SDS011;51832;48.152;11.530;2023-08-20T17:58:44;6.50;;;5.90;;
56599;SDS011;51832;48.152;11.530;2023-08-20T18:03:44;10.73;;;7.00;;
56599;SDS011;51832;48.152;11.530;2023-08-20T18:08:46;15.02;;;7.88;;
56599;SDS011;51832;48.152;11.530;2023-08-20T18:13:46;7.97;;;6.72;;
56599;SDS011;51832;48.152;11.530;2023-08-20T18:18:47;6.87;;;6.20;;
56599;SDS011;51832;48.152;11.530;2023-08-20T18:28:47;6.90;;;6.37;;
56599;SDS011;51832;48.152;11.530;2023-08-20T18:33:48;59.27;;;14.33;;
56599;SDS011;51832;48.152;11.530;2023-08-20T18:38:48;15.67;;;8.13;;
56599;SDS011;51832;48.152;11.530;2023-08-20T18:43:49;7.87;;;6.50;;
56599;SDS011;51832;48.152;11.530;2023-08-20T18:48:49;9.60;;;6.67;;
56599;SDS011;51832;48.152;11.530;2023-08-20T18:53:50;7.90;;;7.10;;
56599;SDS011;51832;48.152;11.530;2023-08-20T18:58:50;7.80;;;6.77;;
56599;SDS011;51832;48.152;11.530;2023-08-20T19:03:51;7.33;;;6.63;;
56599;SDS011;51832;48.152;11.530;2023-08-20T19:08:52;7.97;;;7.22;;
56599;SDS011;51832;48.152;11.530;2023-08-20T19:13:53;8.17;;;7.20;;
56599;SDS011;51832;48.152;11.530;2023-08-20T19:18:53;8.03;;;7.27;;
56599;SDS011;51832;48.152;11.530;2023-08-20T19:23:53;8.63;;;6.80;;
56599;SDS011;51832;48.152;11.530;2023-08-20T19:28:54;9.13;;;7.07;;
56599;SDS011;51832;48.152;11.530;2023-08-20T19:33:54;7.27;;;6.43;;
56599;SDS011;51832;48.152;11.530;2023-08-20T19:38:55;84.67;;;19.23;;
56599;SDS011;51832;48.152;11.530;2023-08-20T19:43:55;8.17;;;7.37;;
56599;SDS011;51832;48.152;11.530;2023-08-20T19:48:56;7.07;;;6.47;;
56599;SDS011;51832;48.152;11.530;2023-08-20T19:53:56;8.33;;;7.53;;
56599;SDS011;51832;48.152;11.530;2023-08-20T19:58:56;7.53;;;6.93;;
56599;SDS011;51832;48.152;11.530;2023-08-20T20:03:57;9.27;;;7.37;;
56599;SDS011;51832;48.152;11.530;2023-08-20T20:08:58;7.47;;;6.63;;
56599;SDS011;51832;48.152;11.530;2023-08-20T20:13:59;7.60;;;6.60;;
56599;SDS011;51832;48.152;11.530;2023-08-20T20:19:00;9.50;;;7.40;;
56599;SDS011;51832;48.152;11.530;2023-08-20T20:24:00;8.20;;;7.40;;
56599;SDS011;51832;48.152;11.530;2023-08-20T20:29:00;8.27;;;6.83;;
56599;SDS011;51832;48.152;11.530;2023-08-20T20:34:01;7.87;;;6.93;;
56599;SDS011;51832;48.152;11.530;2023-08-20T20:39:01;8.77;;;7.97;;
56599;SDS011;51832;48.152;11.530;2023-08-20T20:44:03;8.45;;;7.57;;
56599;SDS011;51832;48.152;11.530;2023-08-20T20:49:03;8.37;;;7.07;;
56599;SDS011;51832;48.152;11.530;2023-08-20T20:54:04;8.93;;;7.73;;
56599;SDS011;51832;48.152;11.530;2023-08-20T20:59:04;8.10;;;7.40;;
56599;SDS011;51832;48.152;11.530;2023-08-20T21:04:05;8.07;;;7.37;;
56599;SDS011;51832;48.152;11.530;2023-08-20T21:09:05;8.63;;;7.73;;
56599;SDS011;51832;48.152;11.530;2023-08-20T21:14:06;9.00;;;8.00;;
56599;SDS011;51832;48.152;11.530;2023-08-20T21:19:06;9.97;;;8.00;;
56599;SDS011;51832;48.152;11.530;2023-08-20T21:24:07;9.37;;;8.03;;
56599;SDS011;51832;48.152;11.530;2023-08-20T21:29:08;8.50;;;7.03;;
56599;SDS011;51832;48.152;11.530;2023-08-20T21:34:08;8.93;;;8.03;;
56599;SDS011;51832;48.152;11.530;2023-08-20T21:39:09;8.53;;;7.73;;
56599;SDS011;51832;48.152;11.530;2023-08-20T21:44:09;9.65;;;8.60;;
56599;SDS011;51832;48.152;11.530;2023-08-20T21:49:09;8.73;;;7.93;;
56599;SDS011;51832;48.152;11.530;2023-08-20T21:54:10;9.25;;;7.82;;
56599;SDS011;51832;48.152;11.530;2023-08-20T21:59:11;9.50;;;8.25;;
56599;SDS011;51832;48.152;11.530;2023-08-20T22:04:11;9.33;;;8.20;;
56599;SDS011;51832;48.152;11.530;2023-08-20T22:09:11;10.75;;;8.68;;
56599;SDS011;51832;48.152;11.530;2023-08-20T22:14:12;9.93;;;8.45;;
56599;SDS011;51832;48.152;11.530;2023-08-20T22:19:12;9.20;;;8.27;;
56599;SDS011;51832;48.152;11.530;2023-08-20T22:24:13;9.77;;;8.80;;
56599;SDS011;51832;48.152;11.530;2023-08-20T22:34:16;9.32;;;8.43;;
56599;SDS011;51832;48.152;11.530;2023-08-20T22:39:16;8.77;;;7.88;;
56599;SDS011;51832;48.152;11.530;2023-08-20T22:44:17;10.18;;;9.10;;
56599;SDS011;51832;48.152;11.530;2023-08-20T22:49:17;9.80;;;8.80;;
56599;SDS011;51832;48.152;11.530;2023-08-20T22:54:17;9.50;;;8.60;;
56599;SDS011;51832;48.152;11.530;2023-08-20T22:59:18;11.18;;;8.52;;
56599;SDS011;51832;48.152;11.530;2023-08-20T23:04:18;9.35;;;8.45;;
56599;SDS011;51832;48.152;11.530;2023-08-20T23:09:19;9.60;;;8.70;;
56599;SDS011;51832;48.152;11.530;2023-08-20T23:14:19;9.65;;;8.77;;
56599;SDS011;51832;48.152;11.530;2023-08-20T23:19:20;9.47;;;8.67;;
56599;SDS011;51832;48.152;11.530;2023-08-20T23:24:20;10.03;;;9.03;;
56599;SDS011;51832;48.152;11.530;2023-08-20T23:29:21;10.77;;;8.83;;
56599;SDS011;51832;48.152;11.530;2023-08-20T23:34:21;9.93;;;8.98;;
56599;SDS011;51832;48.152;11.530;2023-08-20T23:39:22;11.65;;;9.65;;
56599;SDS011;51832;48.152;11.530;2023-08-20T23:44:23;10.50;;;8.77;;
56599;SDS011;51832;48.152;11.530;2023-08-20T23:49:23;10.27;;;9.05;;
56599;SDS011;51832;48.152;11.530;2023-08-20T23:54:24;10.25;;;8.68;;
56599;SDS011;51832;48.152;11.530;2023-08-20T23:59:25;8.93;;;8.07;;
